createdAt,value
2023-04-07T08:39:50.254Z,39.39
2023-04-07T13:37:44.476Z,34.69
2023-04-07T13:38:44.478Z,34.69
2023-04-07T13:39:44.497Z,34.81
2023-04-07T13:40:48.335Z,34.59
2023-04-07T15:13:22.701Z,34.51
2023-04-07T15:14:22.655Z,34.22
2023-04-07T15:15:22.687Z,34.42
2023-04-07T15:16:22.789Z,34.51
2023-04-07T15:17:32.988Z,34.42
2023-04-07T15:18:22.760Z,34.49
2023-04-07T15:19:22.732Z,34.49
2023-04-07T15:20:22.748Z,34.78
2023-04-07T15:21:22.749Z,34.69
2023-04-07T15:22:22.776Z,34.97
2023-04-07T15:23:22.781Z,35.26
2023-04-07T15:24:22.796Z,35.06
2023-04-07T15:25:22.808Z,35.26
2023-04-07T15:26:22.821Z,35.16
2023-04-07T16:09:35.021Z,39.25
2023-04-07T16:10:35.015Z,39.92
2023-04-07T16:11:35.023Z,40.20
2023-04-07T16:12:35.032Z,40.09
2023-04-07T16:13:35.042Z,40.30
2023-04-07T16:14:35.071Z,41.05
2023-04-07T16:15:40.729Z,40.95
2023-04-07T16:16:35.118Z,41.33
2023-04-07T16:17:35.079Z,41.71
2023-04-07T16:18:35.091Z,42.19
2023-04-07T16:19:35.099Z,42.48
2023-04-07T16:20:35.100Z,42.57
2023-04-07T16:21:35.114Z,42.86
2023-04-07T16:22:35.120Z,43.24
2023-04-07T16:23:35.127Z,43.24
2023-04-07T18:15:29.461Z,73.70
2023-04-07T18:16:29.544Z,73.89
2023-04-07T18:17:29.468Z,74.46
2023-04-07T18:18:29.458Z,74.46
2023-04-07T18:19:29.459Z,74.65
2023-04-07T18:20:29.463Z,74.37
2023-04-07T18:21:29.482Z,75.04
2023-04-07T18:22:29.474Z,75.04
2023-04-07T18:23:29.482Z,75.32
2023-04-07T18:24:29.500Z,74.94
2023-04-07T18:25:29.491Z,74.94
2023-04-07T18:26:29.500Z,74.94
2023-04-07T18:27:29.495Z,75.60
2023-04-07T18:32:39.357Z,76.37
2023-04-07T18:37:47.841Z,77.61
2023-04-07T18:43:26.400Z,78.71
2023-04-07T18:44:26.413Z,78.80
2023-04-07T18:45:26.413Z,79.19
2023-04-07T18:46:26.445Z,78.90
2023-04-07T18:47:26.467Z,79.57
2023-04-07T18:48:26.582Z,79.28
2023-04-07T18:49:28.407Z,79.75
2023-04-07T18:58:02.218Z,79.94
2023-04-07T18:59:04.840Z,80.71
2023-04-07T19:00:02.251Z,80.42
2023-04-07T19:01:02.261Z,80.23
2023-04-07T19:02:02.354Z,80.52
2023-04-07T19:03:02.344Z,80.23
2023-04-07T19:04:02.306Z,80.90
2023-04-07T19:05:02.260Z,80.71
2023-04-07T19:06:03.027Z,80.90
2023-04-07T19:07:02.264Z,81.56
2023-04-07T19:08:02.273Z,81.66
2023-04-07T19:09:02.289Z,81.56
2023-04-07T19:10:02.279Z,81.66
2023-04-07T19:11:02.288Z,82.23
2023-04-07T19:12:02.291Z,82.70
2023-04-07T19:13:02.324Z,82.51
2023-04-07T19:14:02.314Z,82.23
2023-04-07T19:15:02.310Z,82.99
2023-04-07T19:16:02.353Z,82.04
2023-04-07T19:17:02.349Z,81.95
2023-04-07T19:18:02.467Z,82.61
2023-04-07T19:19:02.338Z,82.51
2023-04-07T19:20:02.412Z,83.37
2023-04-07T19:21:02.352Z,83.09
2023-04-07T19:22:02.361Z,83.18
2023-04-07T19:23:02.365Z,83.28
2023-04-07T19:24:02.382Z,82.70
2023-04-07T19:25:02.378Z,82.61
2023-04-07T19:26:02.383Z,82.99
2023-04-07T19:27:02.381Z,82.61
2023-04-07T19:28:02.388Z,83.09
2023-04-07T19:29:02.401Z,82.99
2023-04-07T19:30:02.416Z,82.80
2023-04-07T19:31:02.424Z,82.99
2023-04-07T19:32:02.467Z,82.99
2023-04-07T19:33:02.461Z,83.28
2023-04-07T19:34:02.435Z,83.09
2023-04-07T19:35:02.435Z,83.28
2023-04-07T19:36:02.515Z,83.28
2023-04-07T19:37:02.442Z,83.28
2023-04-07T19:38:02.462Z,82.99
2023-04-07T19:39:02.466Z,82.70
2023-04-07T19:40:03.522Z,83.28
2023-04-07T19:41:02.468Z,82.99
2023-04-07T19:42:02.474Z,83.28
2023-04-07T19:43:02.484Z,82.99
2023-04-07T19:44:02.491Z,83.28
2023-04-07T19:45:02.602Z,83.75
2023-04-07T19:46:02.605Z,83.75
2023-04-07T19:47:02.502Z,83.94
2023-04-07T19:48:02.546Z,84.33
2023-04-07T19:49:02.512Z,84.42
2023-04-07T19:50:02.530Z,84.33
2023-04-07T19:51:02.536Z,84.04
2023-04-07T19:52:02.564Z,84.23
2023-04-07T19:53:02.541Z,84.80
2023-04-07T19:54:02.541Z,84.42
2023-04-07T19:55:02.556Z,84.42
2023-04-07T19:56:02.572Z,84.33
2023-04-07T19:57:02.563Z,84.42
2023-04-07T19:58:02.562Z,84.38
2023-04-07T19:59:02.576Z,83.90
2023-04-07T20:03:08.725Z,84.52
2023-04-07T20:04:08.614Z,84.47
2023-04-07T20:05:08.515Z,84.33
2023-04-07T20:06:08.526Z,84.42
2023-04-07T20:07:08.564Z,84.80
2023-04-07T20:08:08.538Z,84.52
2023-04-07T20:09:08.549Z,84.80
2023-04-07T20:10:08.548Z,84.85
2023-04-07T20:11:08.553Z,84.80
2023-04-07T20:12:08.564Z,84.56
2023-04-07T20:13:08.558Z,84.80
2023-04-07T20:14:08.580Z,84.99
2023-04-07T20:15:08.577Z,85.14
2023-04-07T20:16:08.635Z,85.08
2023-04-07T20:17:08.660Z,85.33
2023-04-07T20:18:08.666Z,85.24
2023-04-07T20:19:08.600Z,85.14
2023-04-07T20:20:08.609Z,85.90
2023-04-07T20:21:08.613Z,85.80
2023-04-07T20:22:08.617Z,85.71
2023-04-07T20:23:08.648Z,85.71
2023-04-07T20:24:08.624Z,85.61
2023-04-07T20:25:08.638Z,85.71
2023-04-07T20:26:08.641Z,85.42
2023-04-07T20:27:08.655Z,85.71
2023-04-07T20:28:08.646Z,85.90
2023-04-07T20:29:08.660Z,85.90
2023-04-07T20:30:08.659Z,85.61
2023-04-07T20:31:08.689Z,86.38
2023-04-07T20:32:08.676Z,85.71
2023-04-07T20:33:08.731Z,86.04
2023-04-07T20:34:08.686Z,85.99
2023-04-07T20:35:08.694Z,85.99
2023-04-07T20:36:08.701Z,85.99
2023-04-07T20:37:08.698Z,85.71
2023-04-07T20:38:08.704Z,85.61
2023-04-07T20:39:08.732Z,85.80
2023-04-07T20:40:08.720Z,85.80
2023-04-07T20:41:11.346Z,85.61
2023-04-07T20:42:08.725Z,86.18
2023-04-07T20:43:08.822Z,85.90
2023-04-07T20:44:08.743Z,85.80
2023-04-07T20:45:08.745Z,85.90
2023-04-07T20:46:08.775Z,86.38
2023-04-07T20:47:08.757Z,85.80
2023-04-07T20:48:08.791Z,85.61
2023-04-07T20:49:08.775Z,86.09
2023-04-07T20:50:08.781Z,86.09
2023-04-07T20:51:08.795Z,86.38
2023-04-07T20:52:08.781Z,86.47
2023-04-07T20:53:08.795Z,86.57
2023-04-07T20:54:08.792Z,86.94
2023-04-07T20:55:08.820Z,86.47
2023-04-07T20:56:08.802Z,86.57
2023-04-07T20:57:08.823Z,86.94
2023-04-07T20:58:08.822Z,86.76
2023-04-07T20:59:08.818Z,87.42
2023-04-07T21:00:08.830Z,87.13
2023-04-07T21:01:08.860Z,87.04
2023-04-07T21:02:08.993Z,87.32
2023-04-07T21:03:09.009Z,87.32
2023-04-07T21:04:08.887Z,87.32
2023-04-07T21:05:08.868Z,87.32
2023-04-07T21:06:08.870Z,87.61
2023-04-07T21:07:08.870Z,87.13
2023-04-07T21:08:08.868Z,87.32
2023-04-07T21:09:08.875Z,87.23
2023-04-07T21:10:08.925Z,87.42
2023-04-07T21:11:08.921Z,87.32
2023-04-07T21:12:08.898Z,87.23
2023-04-07T21:13:08.911Z,87.52
2023-04-07T21:14:08.906Z,86.94
2023-04-07T21:15:08.906Z,87.52
2023-04-07T21:16:08.989Z,87.23
2023-04-07T21:17:08.923Z,87.23
2023-04-07T21:18:08.952Z,87.61
2023-04-07T21:19:08.937Z,87.32
2023-04-07T21:20:08.942Z,87.42
2023-04-07T21:21:08.935Z,86.85
2023-04-07T21:22:08.947Z,87.32
2023-04-07T21:23:08.956Z,87.23
2023-04-07T21:24:08.958Z,87.61
2023-04-07T21:25:11.591Z,87.23
2023-04-07T21:26:08.975Z,87.52
2023-04-07T21:27:08.993Z,87.61
2023-04-07T21:28:08.981Z,87.61
2023-04-07T21:29:08.978Z,87.32
2023-04-07T21:30:08.990Z,87.80
2023-04-07T21:31:09.084Z,87.90
2023-04-07T21:32:08.995Z,87.32
2023-04-07T21:33:09.004Z,87.52
2023-04-07T21:34:09.006Z,87.32
2023-04-07T21:35:09.010Z,87.23
2023-04-07T21:36:09.101Z,87.42
2023-04-07T21:37:09.034Z,87.42
2023-04-07T21:38:09.035Z,87.42
2023-04-07T21:39:09.037Z,87.42
2023-04-07T21:40:09.033Z,87.42
2023-04-07T21:41:09.040Z,87.61
2023-04-07T21:42:09.067Z,87.71
2023-04-07T21:43:09.133Z,87.52
2023-04-07T21:44:09.060Z,87.61
2023-04-07T21:45:09.071Z,87.32
2023-04-07T21:46:09.127Z,87.90
2023-04-07T21:47:09.077Z,87.90
2023-04-07T21:48:09.138Z,87.90
2023-04-07T21:49:09.087Z,88.09
2023-04-07T21:50:09.105Z,88.09
2023-04-07T21:51:09.100Z,88.28
2023-04-07T21:52:09.108Z,88.66
2023-04-07T21:53:09.102Z,88.28
2023-04-07T21:54:09.121Z,88.18
2023-04-07T21:55:09.117Z,88.09
2023-04-07T21:56:09.132Z,88.18
2023-04-07T21:57:09.158Z,87.90
2023-04-07T21:58:09.136Z,87.90
2023-04-07T21:59:09.154Z,87.90
2023-04-07T22:00:09.147Z,88.18
2023-04-07T22:01:09.147Z,88.18
2023-04-07T22:02:09.219Z,87.99
2023-04-07T22:03:09.309Z,88.66
2023-04-07T22:04:09.267Z,88.56
2023-04-07T22:05:09.172Z,88.37
2023-04-07T22:06:09.183Z,89.04
2023-04-07T22:07:09.174Z,88.56
2023-04-07T22:08:09.183Z,89.04
2023-04-07T22:09:09.193Z,88.94
2023-04-07T22:10:09.211Z,88.66
2023-04-07T22:11:09.195Z,89.51
2023-04-07T22:12:09.202Z,89.42
2023-04-07T22:13:09.208Z,89.42
2023-04-07T22:14:09.221Z,89.80
2023-04-07T22:15:09.268Z,89.32
2023-04-07T22:16:09.240Z,89.32
2023-04-07T22:17:09.237Z,89.51
2023-04-07T22:18:09.270Z,90.08
2023-04-07T22:19:09.260Z,90.47
2023-04-07T22:20:09.247Z,90.56
2023-04-07T22:21:09.256Z,90.37
2023-04-07T22:22:09.261Z,90.37
2023-04-07T22:23:09.260Z,90.37
2023-04-07T22:24:09.271Z,90.66
2023-04-07T22:25:09.286Z,90.66
2023-04-07T22:26:09.283Z,90.70
2023-04-07T22:27:09.282Z,90.56
2023-04-07T22:28:10.325Z,90.89
2023-04-07T22:29:09.316Z,91.66
2023-04-07T22:30:09.307Z,91.37
2023-04-07T22:31:09.374Z,91.13
2023-04-07T22:32:09.309Z,91.51
2023-04-07T22:33:10.473Z,91.85
2023-04-07T22:34:09.322Z,91.85
2023-04-07T22:35:09.332Z,92.51
2023-04-07T22:36:09.370Z,92.03
2023-04-07T22:37:09.329Z,92.41
2023-04-07T22:38:09.341Z,91.47
2023-04-07T22:39:09.347Z,92.41
2023-04-07T22:40:09.350Z,91.94
2023-04-07T22:41:09.350Z,91.94
2023-04-07T22:42:09.356Z,91.66
2023-04-07T22:43:56.917Z,91.66
2023-04-07T22:44:56.914Z,92.03
2023-04-07T22:45:56.935Z,91.85
2023-04-07T22:46:56.989Z,92.13
2023-04-07T22:47:56.981Z,92.41
2023-04-07T22:48:56.951Z,92.22
2023-04-07T22:49:56.951Z,91.56
2023-04-07T22:50:56.944Z,92.22
2023-04-07T22:51:56.986Z,92.22
2023-04-07T22:52:56.963Z,92.13
2023-04-07T22:53:56.961Z,92.41
2023-04-07T22:54:56.981Z,92.03
2023-04-07T22:56:00.206Z,92.03
2023-04-07T22:56:56.976Z,91.85
2023-04-07T22:57:56.982Z,93.18
2023-04-07T22:58:56.992Z,93.08
2023-04-07T22:59:56.992Z,92.41
2023-04-07T23:00:57.102Z,92.70
2023-04-07T23:01:57.790Z,92.89
2023-04-07T23:02:57.193Z,92.89
2023-04-07T23:03:57.074Z,92.80
2023-04-07T23:04:57.024Z,92.41
2023-04-07T23:05:57.022Z,92.99
2023-04-07T23:07:39.576Z,92.80
2023-04-07T23:08:58.795Z,92.51
2023-04-07T23:09:39.585Z,92.03
2023-04-07T23:10:39.588Z,93.23
2023-04-07T23:11:39.591Z,92.22
2023-04-07T23:12:39.591Z,92.13
2023-04-07T23:13:39.604Z,92.32
2023-04-07T23:14:42.236Z,92.61
2023-04-07T23:15:39.608Z,92.46
2023-04-07T23:16:39.666Z,92.46
2023-04-07T23:17:39.645Z,92.89
2023-04-07T23:18:39.648Z,92.61
2023-04-07T23:19:39.625Z,92.61
2023-04-07T23:20:39.641Z,92.56
2023-04-07T23:21:39.653Z,91.99
2023-04-07T23:22:43.274Z,92.22
2023-04-07T23:23:39.654Z,92.41
2023-04-07T23:24:39.661Z,92.89
2023-04-07T23:25:39.654Z,92.51
2023-04-07T23:26:39.660Z,92.89
2023-04-07T23:27:39.666Z,92.89
2023-04-07T23:28:39.670Z,92.51
2023-04-07T23:29:41.100Z,92.89
2023-04-07T23:30:39.684Z,93.08
2023-04-07T23:31:39.761Z,93.37
2023-04-07T23:32:39.729Z,92.89
2023-04-07T23:33:39.696Z,92.89
2023-04-07T23:34:39.734Z,93.27
2023-04-07T23:35:39.746Z,93.18
2023-04-07T23:36:39.709Z,93.08
2023-04-07T23:37:39.713Z,92.61
2023-04-07T23:38:39.718Z,93.08
2023-04-07T23:39:39.745Z,92.89
2023-04-07T23:40:39.753Z,92.61
2023-04-07T23:41:39.741Z,92.80
2023-04-07T23:42:39.756Z,93.08
2023-04-07T23:43:39.762Z,92.80
2023-04-07T23:44:39.759Z,92.80
2023-04-07T23:45:39.849Z,92.70
2023-04-07T23:47:22.330Z,92.94
2023-04-07T23:48:22.921Z,92.89
2023-04-07T23:49:23.330Z,93.13
2023-04-07T23:50:22.340Z,93.13
2023-04-07T23:51:22.332Z,93.13
2023-04-07T23:52:22.331Z,92.94
2023-04-07T23:53:22.348Z,93.13
2023-04-07T23:54:22.340Z,93.08
2023-04-07T23:55:22.342Z,92.89
2023-04-07T23:56:22.355Z,93.37
2023-04-07T23:57:22.358Z,93.18
2023-04-07T23:58:22.353Z,93.18
2023-04-07T23:59:22.357Z,93.27
